Time;durP1;ratioP1;P1;durP2;ratioP2;P2;SDS_P1;SDS_P2;PMS_P1;PMS_P2;Temp;Humidity;BMP_temperature;BMP_pressure;BME280_temperature;BME280_humidity;BME280_pressure;Samples;Min_cycle;Max_cycle;Signal;HPM_P1;HPM_P2
2021/04/30 00:00:59;;;;;;;2.20;0.80;;;19.60;52.30;;;;;;20850134;28;20033;-22
2021/04/30 00:11:00;;;;;;;5.22;1.83;;;19.60;52.80;;;;;;20849301;28;20060;-23
2021/04/30 00:21:02;;;;;;;3.28;1.77;;;19.50;52.80;;;;;;20853158;28;20026;-22
2021/04/30 00:31:03;;;;;;;3.15;1.15;;;19.50;52.60;;;;;;20799286;28;20034;-22
2021/04/30 00:41:03;;;;;;;1.73;0.90;;;19.50;52.50;;;;;;20846308;28;20110;-22
2021/04/30 00:51:04;;;;;;;3.30;1.30;;;19.50;52.70;;;;;;20840938;28;20045;-22
2021/04/30 01:01:04;;;;;;;1.48;0.70;;;19.50;52.60;;;;;;20839662;28;20476;-22
2021/04/30 01:11:05;;;;;;;5.05;0.70;;;19.40;52.40;;;;;;20849560;28;21008;-22
2021/04/30 01:21:06;;;;;;;2.35;0.50;;;19.40;52.40;;;;;;20834652;28;20597;-22
2021/04/30 01:31:07;;;;;;;2.42;1.15;;;19.40;52.20;;;;;;20855152;28;20025;-22
2021/04/30 01:41:07;;;;;;;1.95;0.95;;;19.40;52.20;;;;;;20844751;28;20037;-21
2021/04/30 01:51:08;;;;;;;1.30;0.60;;;19.30;52.10;;;;;;20833615;28;20113;-22
2021/04/30 02:01:10;;;;;;;1.48;0.73;;;19.30;52.00;;;;;;20846326;28;20632;-22
2021/04/30 02:11:10;;;;;;;2.53;0.80;;;19.30;51.60;;;;;;20831858;28;20034;-21
2021/04/30 02:21:11;;;;;;;1.52;0.75;;;19.30;51.40;;;;;;20830527;28;20018;-22
2021/04/30 02:31:14;;;;;;;1.58;0.95;;;19.30;51.20;;;;;;20833016;28;20395;-22
2021/04/30 02:41:15;;;;;;;1.20;0.70;;;19.30;51.00;;;;;;20829463;28;20432;-22
2021/04/30 02:51:16;;;;;;;2.03;1.00;;;19.20;51.00;;;;;;20828185;28;20022;-22
2021/04/30 03:01:16;;;;;;;2.13;1.00;;;19.20;50.80;;;;;;20828013;28;20061;-21
2021/04/30 03:11:17;;;;;;;1.40;1.00;;;19.20;50.50;;;;;;20827737;28;20072;-22
2021/04/30 03:21:17;;;;;;;3.67;0.88;;;19.20;50.60;;;;;;20825944;28;20415;-22
2021/04/30 03:31:18;;;;;;;2.13;1.48;;;19.20;50.40;;;;;;20824780;28;20056;-22
2021/04/30 03:41:19;;;;;;;2.28;1.63;;;19.10;50.30;;;;;;20830882;28;20422;-22
2021/04/30 03:51:20;;;;;;;3.15;0.90;;;19.10;50.20;;;;;;20852463;28;20029;-22
2021/04/30 04:01:20;;;;;;;1.85;1.08;;;19.10;50.10;;;;;;20841050;28;20594;-23
2021/04/30 04:11:21;;;;;;;3.08;1.42;;;19.20;49.90;;;;;;20839917;28;20029;-22
2021/04/30 04:21:22;;;;;;;2.03;1.15;;;19.20;49.40;;;;;;20845248;28;20033;-22
2021/04/30 04:31:22;;;;;;;3.90;1.67;;;19.80;48.20;;;;;;20847586;28;20063;-22
2021/04/30 04:41:23;;;;;;;1.98;1.60;;;20.60;46.40;;;;;;20844816;28;20036;-22
2021/04/30 04:51:23;;;;;;;1.65;1.13;;;21.30;44.70;;;;;;20844092;28;20033;-21
2021/04/30 05:01:24;;;;;;;2.80;1.52;;;22.10;43.20;;;;;;20802813;28;20457;-22
2021/04/30 05:11:24;;;;;;;2.75;1.02;;;22.00;43.20;;;;;;20807448;28;20080;-22
2021/04/30 05:21:25;;;;;;;3.67;1.52;;;21.70;43.90;;;;;;20857177;28;20030;-22
2021/04/30 05:31:26;;;;;;;10.02;3.00;;;21.40;44.50;;;;;;20791998;28;20061;-22
2021/04/30 05:41:26;;;;;;;12.65;3.65;;;21.20;45.10;;;;;;20859796;28;20031;-21
2021/04/30 05:51:27;;;;;;;13.82;4.13;;;21.00;45.60;;;;;;20864346;28;20021;-21
2021/04/30 06:01:28;;;;;;;8.93;3.15;;;20.70;45.90;;;;;;20861985;28;20037;-21
2021/04/30 06:11:28;;;;;;;10.60;3.67;;;20.60;46.00;;;;;;20816618;28;20029;-22
2021/04/30 06:21:29;;;;;;;10.03;4.23;;;20.50;46.10;;;;;;20748469;28;20072;-22
2021/04/30 06:31:29;;;;;;;25.88;4.50;;;20.50;46.20;;;;;;20824341;28;20420;-22
2021/04/30 06:41:30;;;;;;;15.05;5.03;;;20.50;46.30;;;;;;20811475;28;20548;-22
2021/04/30 06:51:31;;;;;;;17.07;4.73;;;20.50;46.70;;;;;;20800981;28;20454;-22
2021/04/30 07:01:32;;;;;;;13.98;4.10;;;20.80;46.20;;;;;;20786063;28;20471;-22
2021/04/30 07:11:33;;;;;;;11.60;3.78;;;20.80;46.40;;;;;;20867580;28;20036;-22
2021/04/30 07:21:33;;;;;;;15.15;3.60;;;20.80;46.20;;;;;;20883375;28;20024;-22
2021/04/30 07:31:34;;;;;;;10.20;3.78;;;20.80;46.40;;;;;;20889226;28;20040;-22
2021/04/30 07:41:34;;;;;;;17.23;3.53;;;20.70;46.60;;;;;;20884344;28;20036;-22
2021/04/30 07:51:37;;;;;;;9.95;2.95;;;20.60;46.90;;;;;;20769509;28;20068;-22
2021/04/30 08:01:38;;;;;;;8.95;4.05;;;20.60;47.20;;;;;;20765906;28;20032;-22
2021/04/30 08:11:39;;;;;;;14.88;3.75;;;20.50;47.30;;;;;;20775773;28;20057;-22
2021/04/30 08:21:39;;;;;;;11.18;4.05;;;20.30;48.10;;;;;;20812513;28;20164;-22
2021/04/30 08:31:40;;;;;;;12.95;3.72;;;20.20;48.20;;;;;;20791097;28;20053;-22
2021/04/30 08:41:41;;;;;;;11.07;4.60;;;20.10;48.40;;;;;;20776169;28;20033;-22
2021/04/30 08:51:41;;;;;;;14.02;4.13;;;20.10;48.30;;;;;;20807758;28;20029;-22
2021/04/30 09:01:42;;;;;;;6.20;3.60;;;20.00;48.30;;;;;;20826898;28;20033;-22
2021/04/30 09:11:52;;;;;;;11.55;4.18;;;20.00;48.30;;;;;;20841884;28;20459;-23
2021/04/30 09:22:01;;;;;;;11.50;6.15;;;19.90;48.20;;;;;;20847228;28;20032;-22
2021/04/30 09:32:03;;;;;;;8.85;4.03;;;19.80;47.70;;;;;;20797004;28;20103;-23
2021/04/30 09:42:11;;;;;;;10.38;4.00;;;19.80;47.60;;;;;;20762756;28;20505;-23
2021/04/30 09:52:13;;;;;;;12.93;3.75;;;19.80;47.60;;;;;;20771953;28;20057;-23
2021/04/30 10:02:17;;;;;;;7.60;2.75;;;19.80;47.80;;;;;;20787083;28;20037;-22
2021/04/30 10:12:23;;;;;;;6.47;3.33;;;19.80;47.80;;;;;;20817208;28;20391;-23
2021/04/30 10:22:26;;;;;;;8.82;3.72;;;19.70;48.00;;;;;;20813906;28;20041;-23
2021/04/30 10:32:32;;;;;;;8.65;3.13;;;19.70;48.00;;;;;;20818852;28;20496;-23
2021/04/30 10:42:45;;;;;;;10.27;3.13;;;19.70;47.90;;;;;;20818253;28;20094;-23
2021/04/30 10:52:47;;;;;;;6.38;3.42;;;19.70;47.80;;;;;;20849566;28;20024;-23
2021/04/30 11:02:47;;;;;;;4.93;2.67;;;19.60;48.10;;;;;;20851340;28;20044;-23
2021/04/30 11:13:14;;;;;;;6.85;3.08;;;19.60;48.00;;;;;;20791299;28;20044;-22
2021/04/30 11:23:20;;;;;;;7.57;2.70;;;19.60;47.90;;;;;;20798086;28;20029;-22
2021/04/30 11:33:20;;;;;;;4.55;2.70;;;19.60;48.80;;;;;;20780572;28;20381;-22
2021/04/30 11:43:21;;;;;;;4.80;2.63;;;19.60;48.80;;;;;;20742819;28;20034;-22
2021/04/30 11:53:22;;;;;;;5.47;2.90;;;19.60;48.30;;;;;;20768207;28;20088;-22
2021/04/30 12:03:22;;;;;;;7.90;2.97;;;19.60;48.40;;;;;;20764811;28;20036;-22
2021/04/30 12:13:23;;;;;;;11.15;3.58;;;19.60;48.40;;;;;;20835718;28;20036;-22
2021/04/30 12:23:24;;;;;;;3.65;2.42;;;19.50;48.30;;;;;;20806676;28;20033;-22
2021/04/30 12:33:27;;;;;;;4.22;2.25;;;19.50;48.00;;;;;;20820534;28;20090;-22
2021/04/30 12:43:28;;;;;;;6.72;2.78;;;19.50;48.00;;;;;;20819564;28;20030;-22
2021/04/30 12:53:29;;;;;;;3.90;2.33;;;19.50;47.90;;;;;;20819200;28;20037;-22
2021/04/30 13:03:42;;;;;;;4.57;2.60;;;19.40;47.80;;;;;;20818510;28;20053;-22
2021/04/30 13:13:58;;;;;;;3.35;2.65;;;19.40;47.80;;;;;;20818877;28;20030;-21
2021/04/30 13:24:21;;;;;;;3.88;2.50;;;19.40;47.80;;;;;;20831025;28;20033;-21
2021/04/30 13:34:21;;;;;;;5.28;2.42;;;19.40;47.70;;;;;;20827230;28;20033;-21
2021/04/30 13:44:22;;;;;;;2.42;1.83;;;19.30;47.60;;;;;;20839847;28;20064;-21
2021/04/30 13:54:23;;;;;;;2.30;1.90;;;19.40;48.10;;;;;;20860415;28;20021;-22
2021/04/30 14:04:23;;;;;;;3.22;2.30;;;19.40;47.50;;;;;;20863139;28;20037;-21
2021/04/30 14:14:24;;;;;;;2.85;2.30;;;19.40;47.50;;;;;;20851167;28;20496;-22
2021/04/30 14:24:25;;;;;;;3.67;2.47;;;19.30;47.40;;;;;;20855167;28;20052;-22
2021/04/30 14:34:25;;;;;;;3.22;2.53;;;19.30;47.40;;;;;;20846352;28;20097;-22
2021/04/30 14:44:27;;;;;;;2.85;2.13;;;19.30;47.30;;;;;;20850433;28;20111;-23
2021/04/30 14:54:28;;;;;;;5.22;2.20;;;19.30;47.30;;;;;;20850971;28;20029;-21
2021/04/30 15:04:28;;;;;;;3.30;2.22;;;19.30;47.30;;;;;;20862208;28;20388;-22
2021/04/30 15:14:29;;;;;;;3.65;1.75;;;19.30;47.30;;;;;;20845828;28;20030;-22
2021/04/30 15:24:29;;;;;;;2.40;1.90;;;19.30;47.30;;;;;;20848499;28;20037;-21
2021/04/30 15:34:32;;;;;;;2.70;2.13;;;19.30;47.30;;;;;;20842978;28;20048;-22
2021/04/30 15:44:33;;;;;;;2.50;1.80;;;19.40;46.80;;;;;;20839126;28;20036;-22
2021/04/30 15:54:33;;;;;;;3.08;2.17;;;20.10;45.40;;;;;;20774505;28;20026;-22
2021/04/30 16:04:34;;;;;;;3.50;2.08;;;20.90;44.20;;;;;;20821285;28;20029;-22
2021/04/30 16:14:34;;;;;;;2.80;2.17;;;21.90;42.50;;;;;;20797494;28;20029;-22
2021/04/30 16:24:35;;;;;;;3.25;1.55;;;22.70;41.00;;;;;;20760496;28;20026;-22
2021/04/30 16:34:37;;;;;;;2.80;1.73;;;22.70;40.70;;;;;;20752427;28;20563;-22
2021/04/30 16:44:38;;;;;;;6.05;2.65;;;22.60;41.70;;;;;;20778103;28;20400;-22
2021/04/30 16:54:38;;;;;;;6.20;2.70;;;22.30;43.10;;;;;;20721300;28;20041;-22
2021/04/30 17:04:39;;;;;;;3.90;2.00;;;22.20;43.40;;;;;;20723621;28;20033;-22
2021/04/30 17:14:39;;;;;;;6.15;2.42;;;22.00;43.90;;;;;;20767529;28;20030;-22
2021/04/30 17:24:41;;;;;;;6.57;2.63;;;21.70;44.30;;;;;;20761042;28;20202;-22
2021/04/30 17:34:41;;;;;;;8.93;2.17;;;21.60;44.50;;;;;;20784852;28;20104;-22
2021/04/30 17:44:42;;;;;;;3.20;2.20;;;21.60;44.50;;;;;;20804981;28;20128;-22
2021/04/30 17:54:42;;;;;;;2.90;2.00;;;21.50;44.60;;;;;;20785254;28;20034;-22
2021/04/30 18:04:43;;;;;;;3.90;2.27;;;21.80;44.10;;;;;;20844436;28;20033;-22
2021/04/30 18:14:44;;;;;;;3.70;1.77;;;21.60;44.10;;;;;;20848890;28;20803;-22
2021/04/30 18:24:44;;;;;;;11.43;1.90;;;21.80;43.90;;;;;;20800700;28;20021;-22
2021/04/30 18:34:45;;;;;;;3.45;2.58;;;21.80;43.90;;;;;;20853822;28;20029;-22
2021/04/30 18:44:46;;;;;;;6.85;2.47;;;21.80;44.00;;;;;;20813009;28;20029;-22
2021/04/30 18:54:46;;;;;;;5.27;1.97;;;21.80;44.00;;;;;;20792879;28;20450;-21
2021/04/30 19:04:47;;;;;;;9.10;1.98;;;21.60;44.10;;;;;;20841034;28;20518;-21
2021/04/30 19:14:47;;;;;;;3.33;1.77;;;21.70;43.90;;;;;;20859181;28;20107;-22
2021/04/30 19:24:48;;;;;;;5.07;1.67;;;21.70;43.70;;;;;;20831241;28;20832;-21
2021/04/30 19:34:51;;;;;;;3.50;2.07;;;21.70;43.70;;;;;;20788296;28;20029;-21
2021/04/30 19:44:51;;;;;;;4.00;2.10;;;21.70;43.80;;;;;;20808516;28;20475;-21
2021/04/30 19:54:52;;;;;;;6.30;2.47;;;21.60;44.00;;;;;;20840148;28;20102;-21
2021/04/30 20:04:54;;;;;;;7.75;2.42;;;21.80;43.50;;;;;;20807887;28;20568;-22
2021/04/30 20:14:55;;;;;;;7.95;3.38;;;21.70;43.80;;;;;;20819484;28;20124;-22
2021/04/30 20:24:56;;;;;;;8.15;1.98;;;21.60;44.80;;;;;;20761583;28;20772;-22
2021/04/30 20:34:56;;;;;;;6.95;1.77;;;21.50;45.10;;;;;;20768166;28;20029;-22
2021/04/30 20:44:57;;;;;;;3.63;1.90;;;21.40;45.70;;;;;;20767861;28;20032;-21
2021/04/30 20:54:57;;;;;;;4.70;2.53;;;21.20;46.00;;;;;;20774374;28;20514;-21
2021/04/30 21:04:58;;;;;;;7.70;2.03;;;21.00;46.20;;;;;;20794166;28;20047;-22
2021/04/30 21:15:00;;;;;;;6.82;2.25;;;21.00;46.50;;;;;;20828771;28;20029;-21
2021/04/30 21:25:01;;;;;;;2.90;1.75;;;20.80;46.70;;;;;;20800276;28;20025;-21
2021/04/30 21:35:02;;;;;;;8.57;2.40;;;20.70;46.90;;;;;;20788289;28;20136;-21
2021/04/30 21:45:05;;;;;;;3.70;2.40;;;20.60;47.10;;;;;;20839419;28;20061;-22
2021/04/30 21:55:07;;;;;;;3.63;2.22;;;20.50;47.20;;;;;;20856674;28;20052;-22
2021/04/30 22:05:08;;;;;;;5.22;2.50;;;20.40;47.30;;;;;;20866314;28;20032;-22
2021/04/30 22:15:18;;;;;;;9.70;2.40;;;20.30;47.40;;;;;;20848425;28;20072;-23
2021/04/30 22:25:20;;;;;;;7.38;2.75;;;20.30;47.50;;;;;;20761929;28;20473;-23
2021/04/30 22:35:21;;;;;;;22.13;3.40;;;20.30;47.90;;;;;;20787837;28;20109;-22
2021/04/30 22:45:22;;;;;;;7.90;3.08;;;20.30;48.10;;;;;;20786289;28;20041;-22
2021/04/30 22:55:23;;;;;;;8.73;2.25;;;20.10;47.90;;;;;;20787498;28;20033;-22
2021/04/30 23:05:24;;;;;;;10.20;2.43;;;20.10;47.70;;;;;;20729362;28;20021;-21
2021/04/30 23:15:24;;;;;;;9.33;2.90;;;20.10;47.70;;;;;;20789433;28;20460;-22
2021/04/30 23:25:25;;;;;;;8.45;2.70;;;20.00;47.30;;;;;;20842613;28;20785;-22
2021/04/30 23:35:27;;;;;;;9.50;3.25;;;20.00;47.20;;;;;;20826535;28;20471;-22
2021/04/30 23:45:27;;;;;;;6.35;3.50;;;19.90;47.10;;;;;;20833513;28;20404;-22
2021/04/30 23:55:28;;;;;;;13.52;3.63;;;19.90;47.00;;;;;;20828862;28;20048;-22
